Time;durP1;ratioP1;P1;durP2;ratioP2;P2;SDS_P1;SDS_P2;PMS_P1;PMS_P2;Temp;Humidity;BMP_temperature;BMP_pressure;BME280_temperature;BME280_humidity;BME280_pressure;Samples;Min_cycle;Max_cycle;Signal;HPM_P1;HPM_P2
2023/05/11 00:02:00;;;;;;;0.25;0.25;;;;;;;19.23;100.00;101373.88;10440459;28;20060;-83
2023/05/11 00:07:02;;;;;;;0.20;0.10;;;;;;;19.56;100.00;101385.06;10437763;28;20049;-81
2023/05/11 00:12:04;;;;;;;0.20;0.20;;;;;;;19.59;100.00;101377.22;10419903;28;20052;-83
2023/05/11 00:17:06;;;;;;;0.40;0.40;;;;;;;20.24;100.00;101374.28;10437015;28;20094;-83
2023/05/11 00:22:07;;;;;;;0.40;0.20;;;;;;;19.56;100.00;101369.38;10438043;28;20044;-83
2023/05/11 00:27:09;;;;;;;0.40;0.35;;;;;;;19.79;100.00;101371.91;10436039;28;20091;-83
2023/05/11 00:32:11;;;;;;;0.00;0.00;;;;;;;19.87;100.00;101364.03;10438283;28;20550;-82
2023/05/11 00:37:13;;;;;;;0.00;0.00;;;;;;;19.66;100.00;101373.72;10427084;28;20055;-83
2023/05/11 00:42:17;;;;;;;0.45;0.38;;;;;;;19.52;100.00;101370.28;10434916;28;20090;-82
2023/05/11 00:47:19;;;;;;;0.20;0.20;;;;;;;19.51;100.00;101355.47;10434652;28;20492;-83
2023/05/11 00:52:21;;;;;;;0.85;0.45;;;;;;;19.76;100.00;101376.28;10435003;28;20132;-83
2023/05/11 00:57:23;;;;;;;1.23;0.50;;;;;;;19.85;100.00;101371.03;10433920;28;20083;-83
2023/05/11 01:02:25;;;;;;;0.20;0.13;;;;;;;19.84;100.00;101374.53;10418030;28;20099;-83
2023/05/11 01:08:03;;;;;;;0.10;0.10;;;;;;;19.16;100.00;101366.91;10417505;28;20048;-83
2023/05/11 01:13:08;;;;;;;0.25;0.22;;;;;;;19.48;100.00;101364.19;10416045;28;20041;-82
2023/05/11 01:18:16;;;;;;;1.55;0.70;;;;;;;19.38;100.00;101362.47;10433222;28;20103;-82
2023/05/11 01:23:49;;;;;;;0.00;0.00;;;;;;;19.89;100.00;101370.16;10415938;28;20098;-82
2023/05/11 01:29:12;;;;;;;0.35;0.22;;;;;;;19.41;100.00;101364.22;10413550;28;20131;-83
2023/05/11 01:34:21;;;;;;;0.43;0.43;;;;;;;19.48;100.00;101371.16;10412422;28;20045;-82
2023/05/11 01:39:31;;;;;;;0.40;0.20;;;;;;;19.64;100.00;101366.75;10431859;28;20056;-82
2023/05/11 01:44:36;;;;;;;0.25;0.22;;;;;;;19.53;100.00;101358.97;10431961;28;20060;-84
2023/05/11 01:49:41;;;;;;;0.20;0.17;;;;;;;19.62;100.00;101369.34;10431448;28;20420;-81
2023/05/11 01:54:46;;;;;;;0.68;0.60;;;;;;;18.14;100.00;101388.63;10432562;28;20047;-83
2023/05/11 01:59:51;;;;;;;1.33;0.55;;;;;;;18.07;100.00;101392.94;10429601;28;20048;-83
2023/05/11 02:04:54;;;;;;;0.43;0.35;;;;;;;18.53;100.00;101388.69;10432175;28;20045;-83
2023/05/11 02:09:57;;;;;;;0.35;0.32;;;;;;;18.37;100.00;101383.44;10409312;28;20052;-86
2023/05/11 02:15:00;;;;;;;0.82;0.60;;;;;;;19.05;100.00;101376.50;10427329;28;20136;-84
2023/05/11 02:20:04;;;;;;;0.40;0.38;;;;;;;19.01;100.00;101391.31;10417986;28;20064;-86
2023/05/11 02:25:08;;;;;;;1.70;0.98;;;;;;;18.63;100.00;101387.81;10428178;28;20045;-85
2023/05/11 02:30:11;;;;;;;0.82;0.43;;;;;;;19.17;100.00;101389.56;10425252;28;20041;-84
2023/05/11 02:35:24;;;;;;;1.25;0.95;;;;;;;19.11;100.00;101392.16;10412807;28;20052;-85
2023/05/11 02:40:29;;;;;;;0.32;0.25;;;;;;;19.13;100.00;101399.13;10412333;28;20049;-86
2023/05/11 02:45:34;;;;;;;1.40;0.68;;;;;;;19.13;100.00;101404.38;10430220;28;20049;-85
2023/05/11 02:50:39;;;;;;;0.80;0.80;;;;;;;19.48;100.00;101407.75;10429448;28;20060;-85
2023/05/11 02:55:42;;;;;;;0.65;0.40;;;;;;;19.68;100.00;101404.19;10414921;28;20053;-86
2023/05/11 03:00:44;;;;;;;0.35;0.35;;;;;;;18.68;100.00;101414.78;10431098;28;20040;-86
2023/05/11 03:05:46;;;;;;;0.63;0.30;;;;;;;17.62;100.00;101428.38;10431444;28;20044;-84
2023/05/11 03:10:49;;;;;;;0.55;0.20;;;;;;;16.84;100.00;101431.28;10431521;28;20045;-84
2023/05/11 03:15:55;;;;;;;1.88;0.38;;;;;;;16.75;100.00;101432.09;10436784;28;20367;-85
2023/05/11 03:20:59;;;;;;;1.55;0.52;;;;;;;15.77;100.00;101425.81;10434822;28;20045;-84
2023/05/11 03:26:06;;;;;;;0.35;0.30;;;;;;;16.42;100.00;101418.75;10420238;28;20412;-84
2023/05/11 03:31:13;;;;;;;0.25;0.25;;;;;;;16.26;100.00;101428.16;10423611;28;20041;-84
2023/05/11 03:36:16;;;;;;;0.00;0.00;;;;;;;17.08;100.00;101415.91;10423414;28;20493;-84
2023/05/11 03:41:20;;;;;;;0.20;0.17;;;;;;;17.90;100.00;101412.88;10437945;28;20041;-84
2023/05/11 03:46:26;;;;;;;0.08;0.08;;;;;;;18.30;100.00;101410.38;10433271;28;20124;-84
2023/05/11 03:51:28;;;;;;;0.00;0.00;;;;;;;18.37;100.00;101406.91;10429315;28;20132;-84
2023/05/11 03:56:30;;;;;;;0.00;0.00;;;;;;;18.59;100.00;101404.34;10447121;28;20045;-84
2023/05/11 04:01:33;;;;;;;0.00;0.00;;;;;;;17.86;100.00;101405.88;10419699;28;20037;-83
2023/05/11 04:06:36;;;;;;;0.00;0.00;;;;;;;18.14;100.00;101412.09;10447828;28;20059;-84
2023/05/11 04:11:58;;;;;;;0.00;0.00;;;;;;;17.12;100.00;101412.47;10434076;28;20377;-84
2023/05/11 04:17:00;;;;;;;0.30;0.25;;;;;;;16.87;100.00;101415.69;10449819;28;20053;-84
2023/05/11 04:22:02;;;;;;;0.10;0.10;;;;;;;16.60;100.00;101420.69;10437057;28;20049;-84
2023/05/11 04:27:04;;;;;;;0.10;0.10;;;;;;;16.28;100.00;101416.03;10449310;28;20045;-79
2023/05/11 04:32:06;;;;;;;0.00;0.00;;;;;;;16.57;100.00;101419.81;10461784;28;20466;-80
2023/05/11 04:37:08;;;;;;;0.28;0.20;;;;;;;17.56;100.00;101423.13;10443025;28;20045;-79
2023/05/11 04:42:10;;;;;;;0.52;0.40;;;;;;;17.72;100.00;101424.94;10459469;28;20051;-80
2023/05/11 04:47:14;;;;;;;0.05;0.05;;;;;;;18.28;100.00;101419.94;10443187;28;20094;-80
2023/05/11 04:52:17;;;;;;;0.95;0.20;;;;;;;18.37;100.00;101417.34;10442539;28;20049;-80
2023/05/11 04:57:22;;;;;;;0.20;0.10;;;;;;;18.94;100.00;101427.00;10425898;28;20044;-80
2023/05/11 05:02:24;;;;;;;0.20;0.00;;;;;;;18.15;100.00;101429.50;10425310;28;20091;-80
2023/05/11 05:07:26;;;;;;;0.05;0.05;;;;;;;17.09;100.00;101428.03;10425388;28;20459;-79
2023/05/11 05:12:28;;;;;;;0.13;0.13;;;;;;;17.06;100.00;101424.53;10425027;28;20049;-80
2023/05/11 05:17:30;;;;;;;0.00;0.00;;;;;;;17.76;100.00;101418.03;10424689;28;20484;-80
2023/05/11 05:22:33;;;;;;;0.20;0.08;;;;;;;17.08;100.00;101428.94;10440677;28;20052;-79
2023/05/11 05:27:36;;;;;;;0.10;0.10;;;;;;;18.38;100.00;101432.16;10424643;28;20097;-79
2023/05/11 05:32:41;;;;;;;0.30;0.13;;;;;;;18.04;100.00;101442.50;10425256;28;20488;-79
2023/05/11 05:37:43;;;;;;;0.45;0.22;;;;;;;18.75;100.00;101446.09;10424161;28;20132;-79
2023/05/11 05:42:45;;;;;;;0.13;0.13;;;;;;;18.58;100.00;101443.47;10423817;28;20041;-79
2023/05/11 05:47:52;;;;;;;0.10;0.00;;;;;;;18.80;100.00;101460.06;10424372;28;20080;-80
2023/05/11 05:52:55;;;;;;;0.38;0.20;;;;;;;18.49;100.00;101462.63;10440569;28;20058;-79
2023/05/11 05:57:59;;;;;;;0.10;0.10;;;;;;;18.37;100.00;101461.69;10423579;28;20445;-80
2023/05/11 06:03:01;;;;;;;0.00;0.00;;;;;;;18.41;100.00;101482.59;10439508;28;20419;-79
2023/05/11 06:08:03;;;;;;;0.15;0.10;;;;;;;18.57;100.00;101480.88;10438616;28;20047;-80
2023/05/11 06:13:12;;;;;;;2.90;0.47;;;;;;;19.15;100.00;101480.09;10424233;28;20048;-80
2023/05/11 06:18:16;;;;;;;0.03;0.03;;;;;;;19.03;100.00;101481.81;10439825;28;20053;-80
2023/05/11 06:23:18;;;;;;;0.00;0.00;;;;;;;18.73;100.00;101485.25;10422881;28;20445;-80
2023/05/11 06:28:23;;;;;;;0.13;0.13;;;;;;;17.85;100.00;101485.84;10438943;28;20378;-80
2023/05/11 06:33:29;;;;;;;0.95;0.65;;;;;;;19.31;100.00;101483.56;10427497;28;20052;-80
2023/05/11 06:38:32;;;;;;;0.08;0.08;;;;;;;18.55;100.00;101486.09;10444142;28;20049;-80
2023/05/11 06:43:37;;;;;;;0.30;0.30;;;;;;;19.20;100.00;101486.16;10427993;28;20041;-79
2023/05/11 06:48:42;;;;;;;0.10;0.10;;;;;;;19.32;100.00;101480.06;10441772;28;20057;-78
2023/05/11 06:53:44;;;;;;;0.00;0.00;;;;;;;18.89;100.00;101488.75;10458109;28;20443;-79
2023/05/11 06:58:46;;;;;;;0.00;0.00;;;;;;;19.79;100.00;101486.06;10457321;28;20037;-79
2023/05/11 07:03:48;;;;;;;0.00;0.00;;;;;;;20.41;100.00;101488.44;10435243;28;20052;-80
2023/05/11 07:08:51;;;;;;;0.00;0.00;;;;;;;20.37;100.00;101494.56;10430563;28;20140;-79
2023/05/11 07:13:53;;;;;;;0.00;0.00;;;;;;;20.19;100.00;101499.03;10417099;28;20439;-79
2023/05/11 07:18:55;;;;;;;0.40;0.17;;;;;;;20.36;100.00;101498.06;10411037;28;20497;-79
2023/05/11 07:23:57;;;;;;;0.30;0.13;;;;;;;20.01;100.00;101501.69;10427415;28;20041;-79
2023/05/11 07:28:58;;;;;;;0.05;0.00;;;;;;;21.11;100.00;101491.44;10416579;28;20114;-80
2023/05/11 07:34:00;;;;;;;0.20;0.00;;;;;;;20.28;100.00;101496.38;10424457;28;20041;-80
2023/05/11 07:39:02;;;;;;;0.00;0.00;;;;;;;20.14;100.00;101498.19;10440284;28;20045;-80
2023/05/11 07:44:04;;;;;;;0.00;0.00;;;;;;;21.09;100.00;101495.84;10437068;28;20124;-80
2023/05/11 07:49:07;;;;;;;0.00;0.00;;;;;;;21.14;100.00;101496.66;10445953;28;20056;-81
2023/05/11 07:54:14;;;;;;;0.00;0.00;;;;;;;21.00;100.00;101488.06;10438707;28;20077;-81
2023/05/11 07:59:16;;;;;;;0.20;0.08;;;;;;;21.07;100.00;101492.38;10438235;28;20276;-81
2023/05/11 08:04:18;;;;;;;0.00;0.00;;;;;;;20.61;100.00;101493.56;10438182;28;20500;-81
2023/05/11 08:09:19;;;;;;;0.20;0.10;;;;;;;21.95;100.00;101477.50;10418829;28;20048;-81
2023/05/11 08:14:22;;;;;;;0.57;0.50;;;;;;;19.87;100.00;101493.94;10439093;28;20037;-83
2023/05/11 08:19:24;;;;;;;0.00;0.00;;;;;;;21.29;100.00;101494.78;10436070;28;20087;-83
2023/05/11 08:24:26;;;;;;;0.08;0.08;;;;;;;20.36;100.00;101498.06;10438283;28;20533;-83
2023/05/11 08:29:28;;;;;;;0.43;0.22;;;;;;;21.44;100.00;101491.16;10435825;28;20134;-83
2023/05/11 08:34:32;;;;;;;0.10;0.10;;;;;;;22.08;100.00;101484.31;10418345;28;20053;-84
2023/05/11 08:39:34;;;;;;;0.35;0.35;;;;;;;23.85;100.00;101482.34;10445919;28;20059;-84
2023/05/11 08:44:48;;;;;;;0.28;0.10;;;;;;;22.31;100.00;101491.03;10433397;28;20052;-84
2023/05/11 08:49:53;;;;;;;0.28;0.10;;;;;;;22.89;100.00;101493.72;10417651;28;20451;-84
2023/05/11 08:54:55;;;;;;;0.20;0.20;;;;;;;23.31;100.00;101485.16;10432304;28;20310;-84
2023/05/11 08:59:58;;;;;;;0.00;0.00;;;;;;;23.98;100.00;101488.25;10419291;28;20507;-85
2023/05/11 09:05:02;;;;;;;0.00;0.00;;;;;;;23.69;100.00;101491.44;10420320;28;20057;-86
2023/05/11 09:10:05;;;;;;;0.20;0.10;;;;;;;22.53;100.00;101493.38;10435633;28;20107;-85
2023/05/11 09:15:07;;;;;;;0.00;0.00;;;;;;;20.63;100.00;101496.16;10421674;28;20057;-85
2023/05/11 09:20:09;;;;;;;0.00;0.00;;;;;;;21.49;100.00;101494.59;10438992;28;20051;-84
2023/05/11 09:25:13;;;;;;;0.73;0.30;;;;;;;22.70;100.00;101488.75;10441211;28;20052;-85
2023/05/11 09:30:17;;;;;;;0.00;0.00;;;;;;;22.66;100.00;101484.44;10428773;28;20397;-85
2023/05/11 09:35:27;;;;;;;0.00;0.00;;;;;;;23.58;100.00;101489.03;10410729;28;20060;-85
2023/05/11 09:40:33;;;;;;;0.05;0.05;;;;;;;23.19;100.00;101486.25;10424324;28;20043;-84
2023/05/11 09:45:40;;;;;;;0.10;0.05;;;;;;;22.76;100.00;101486.03;10433185;28;20048;-84
2023/05/11 09:50:42;;;;;;;0.00;0.00;;;;;;;21.86;100.00;101486.38;10429350;28;20413;-83
2023/05/11 09:55:54;;;;;;;0.30;0.10;;;;;;;21.39;100.00;101493.84;10444866;28;20040;-84
2023/05/11 10:00:56;;;;;;;0.20;0.15;;;;;;;21.55;100.00;101484.94;10427748;28;20041;-83
2023/05/11 10:05:59;;;;;;;0.00;0.00;;;;;;;21.99;100.00;101490.56;10427895;28;20084;-83
2023/05/11 10:11:01;;;;;;;0.10;0.00;;;;;;;22.32;100.00;101492.75;10416243;28;20518;-83
2023/05/11 10:16:05;;;;;;;0.13;0.13;;;;;;;21.98;100.00;101487.97;10418621;28;20534;-83
2023/05/11 10:21:09;;;;;;;0.05;0.00;;;;;;;22.77;100.00;101482.50;10430834;28;20050;-83
2023/05/11 10:26:10;;;;;;;0.00;0.00;;;;;;;22.96;100.00;101484.84;10424947;28;20515;-83
2023/05/11 10:31:13;;;;;;;0.00;0.00;;;;;;;22.36;100.00;101486.59;10414580;28;20048;-83
2023/05/11 10:36:16;;;;;;;0.40;0.00;;;;;;;22.87;100.00;101485.00;10412792;28;20084;-84
2023/05/11 10:41:50;;;;;;;0.00;0.00;;;;;;;22.10;100.00;101482.56;10430406;28;20040;-83
2023/05/11 10:47:36;;;;;;;0.00;0.00;;;;;;;22.78;100.00;101481.63;10423627;28;20049;-81
2023/05/11 10:52:53;;;;;;;0.00;0.00;;;;;;;22.80;100.00;101490.34;10417169;28;20045;-82
2023/05/11 10:58:57;;;;;;;0.10;0.10;;;;;;;23.18;100.00;101489.78;10437972;28;20156;-81
2023/05/11 11:04:04;;;;;;;0.00;0.00;;;;;;;23.06;100.00;101491.66;10299086;28;20050;-81
2023/05/11 11:09:13;;;;;;;0.00;0.00;;;;;;;22.62;100.00;101493.25;10423370;28;20289;-81
2023/05/11 11:14:16;;;;;;;;;;;;;;;22.63;100.00;101487.09;10438558;28;20067;-80
2023/05/11 11:19:27;;;;;;;0.00;0.00;;;;;;;22.60;100.00;101485.41;10424112;28;20054;-80
2023/05/11 11:24:35;;;;;;;0.00;0.00;;;;;;;23.05;100.00;101479.41;10441548;28;20575;-80
2023/05/11 11:29:39;;;;;;;0.40;0.28;;;;;;;21.35;100.00;101497.34;10424304;28;20416;-77
2023/05/11 11:34:40;;;;;;;0.38;0.17;;;;;;;21.75;100.00;101489.13;10429590;28;20049;-78
2023/05/11 11:39:42;;;;;;;0.50;0.38;;;;;;;21.67;100.00;101488.34;10441897;28;20052;-79
2023/05/11 11:44:47;;;;;;;0.15;0.10;;;;;;;22.28;100.00;101480.59;10441628;28;20041;-76
2023/05/11 11:49:53;;;;;;;0.05;0.05;;;;;;;22.26;100.00;101482.34;10458053;28;20033;-78
2023/05/11 11:55:00;;;;;;;0.32;0.28;;;;;;;22.12;100.00;101470.28;10435989;28;20471;-80
2023/05/11 12:00:09;;;;;;;0.13;0.13;;;;;;;22.67;100.00;101475.69;10422690;28;20049;-81
2023/05/11 12:05:18;;;;;;;1.55;0.20;;;;;;;22.78;100.00;101475.50;10434438;28;20053;-80
2023/05/11 12:10:22;;;;;;;0.10;0.10;;;;;;;22.57;100.00;101472.31;10414316;28;20096;-80
2023/05/11 12:15:26;;;;;;;0.20;0.20;;;;;;;23.55;100.00;101465.44;10454550;28;20080;-79
2023/05/11 12:20:27;;;;;;;0.10;0.10;;;;;;;23.23;100.00;101464.25;10437092;28;20037;-80
2023/05/11 12:25:29;;;;;;;0.08;0.08;;;;;;;23.37;100.00;101456.13;10431661;28;20049;-81
2023/05/11 12:30:32;;;;;;;1.00;0.20;;;;;;;23.82;100.00;101452.59;10442923;28;20041;-80
2023/05/11 12:35:34;;;;;;;0.00;0.00;;;;;;;24.22;100.00;101450.00;10421632;28;20554;-79
2023/05/11 12:40:37;;;;;;;0.10;0.10;;;;;;;23.64;100.00;101438.94;10439282;28;20048;-79
2023/05/11 12:45:39;;;;;;;0.10;0.10;;;;;;;22.82;100.00;101454.41;10451635;28;20057;-79
2023/05/11 12:50:42;;;;;;;0.57;0.40;;;;;;;23.71;100.00;101448.44;10432126;28;20477;-80
2023/05/11 12:55:59;;;;;;;0.20;0.20;;;;;;;23.70;100.00;101449.34;10432529;28;20457;-80
2023/05/11 13:01:00;;;;;;;0.40;0.30;;;;;;;23.47;100.00;101448.94;10418401;28;20045;-79
2023/05/11 13:06:12;;;;;;;0.20;0.13;;;;;;;23.39;100.00;101447.31;10455280;28;20156;-80
2023/05/11 13:11:17;;;;;;;0.43;0.40;;;;;;;22.80;100.00;101452.69;10438978;28;20415;-81
2023/05/11 13:16:30;;;;;;;0.10;0.10;;;;;;;23.69;100.00;101441.47;10431477;28;20040;-81
2023/05/11 13:21:33;;;;;;;0.55;0.30;;;;;;;23.92;100.00;101446.25;10430379;28;20045;-81
2023/05/11 13:26:34;;;;;;;0.25;0.20;;;;;;;23.27;100.00;101465.97;10427917;28;20091;-82
2023/05/11 13:31:50;;;;;;;0.10;0.10;;;;;;;21.97;100.00;101454.75;10435519;28;20068;-81
2023/05/11 13:36:53;;;;;;;0.73;0.30;;;;;;;21.34;100.00;101449.31;10408137;28;20060;-80
2023/05/11 13:41:55;;;;;;;0.25;0.17;;;;;;;21.08;100.00;101465.28;10435875;28;20106;-82
2023/05/11 13:46:56;;;;;;;0.10;0.10;;;;;;;20.35;100.00;101464.94;10436431;28;20041;-81
2023/05/11 13:51:59;;;;;;;0.00;0.00;;;;;;;20.33;100.00;101461.44;10419205;28;20067;-80
2023/05/11 13:57:01;;;;;;;0.13;0.05;;;;;;;19.56;100.00;101470.44;10454430;28;20090;-81
2023/05/11 14:02:03;;;;;;;0.20;0.20;;;;;;;20.26;100.00;101477.19;10436701;28;20045;-82
2023/05/11 14:07:05;;;;;;;0.10;0.10;;;;;;;21.83;100.00;101489.00;10439541;28;20496;-81
2023/05/11 14:12:07;;;;;;;0.30;0.20;;;;;;;21.66;100.00;101486.59;10440005;28;20392;-79
2023/05/11 14:17:12;;;;;;;0.45;0.25;;;;;;;20.39;100.00;101488.47;10440060;28;20045;-79
2023/05/11 14:22:15;;;;;;;1.35;0.52;;;;;;;20.01;100.00;101499.09;10457109;28;20091;-79
2023/05/11 14:27:16;;;;;;;0.43;0.22;;;;;;;20.49;100.00;101478.81;10439266;28;20056;-79
2023/05/11 14:32:18;;;;;;;0.60;0.20;;;;;;;21.29;100.00;101486.94;10438454;28;20408;-79
2023/05/11 14:37:20;;;;;;;0.00;0.00;;;;;;;21.56;100.00;101484.03;10440286;28;20072;-79
2023/05/11 14:42:21;;;;;;;0.10;0.10;;;;;;;22.06;100.00;101477.38;10440626;28;20048;-79
2023/05/11 14:47:23;;;;;;;0.00;0.00;;;;;;;21.95;100.00;101488.00;10439669;28;20484;-79
2023/05/11 14:52:25;;;;;;;0.10;0.10;;;;;;;22.08;100.00;101500.06;10438848;28;20045;-80
2023/05/11 14:57:27;;;;;;;0.20;0.13;;;;;;;20.58;100.00;101518.00;10422709;28;20041;-80
2023/05/11 15:02:29;;;;;;;0.10;0.10;;;;;;;20.85;100.00;101510.88;10455805;28;20485;-79
2023/05/11 15:07:31;;;;;;;0.68;0.20;;;;;;;20.08;100.00;101513.88;10421820;28;20049;-80
2023/05/11 15:12:32;;;;;;;0.17;0.17;;;;;;;20.27;100.00;101519.91;10422239;28;20053;-80
2023/05/11 15:17:34;;;;;;;0.20;0.00;;;;;;;19.25;100.00;101530.59;10437029;28;20099;-78
2023/05/11 15:22:36;;;;;;;0.60;0.57;;;;;;;19.81;100.00;101531.38;10436720;28;20412;-78
2023/05/11 15:27:38;;;;;;;0.00;0.00;;;;;;;20.20;100.00;101519.06;10435949;28;20044;-78
2023/05/11 15:32:40;;;;;;;0.05;0.05;;;;;;;20.31;100.00;101526.00;10436916;28;20124;-78
2023/05/11 15:37:41;;;;;;;0.05;0.05;;;;;;;20.68;100.00;101525.78;10437500;28;20126;-79
2023/05/11 15:42:43;;;;;;;0.35;0.20;;;;;;;20.08;100.00;101521.72;10426625;28;20056;-78
2023/05/11 15:47:44;;;;;;;0.00;0.00;;;;;;;20.73;100.00;101518.81;10428406;28;20064;-79
2023/05/11 15:52:46;;;;;;;0.00;0.00;;;;;;;20.58;100.00;101519.75;10413554;28;20046;-78
2023/05/11 15:57:48;;;;;;;0.15;0.08;;;;;;;20.31;100.00;101523.38;10428228;28;20053;-79
2023/05/11 16:02:50;;;;;;;0.20;0.13;;;;;;;21.09;100.00;101516.81;10444283;28;20490;-78
2023/05/11 16:07:51;;;;;;;0.20;0.20;;;;;;;20.92;100.00;101514.34;10427518;28;20051;-78
2023/05/11 16:12:53;;;;;;;0.28;0.22;;;;;;;19.96;100.00;101520.91;10428043;28;20045;-79
2023/05/11 16:17:58;;;;;;;1.30;0.98;;;;;;;20.25;100.00;101501.59;10444920;28;20373;-78
2023/05/11 16:23:03;;;;;;;0.43;0.10;;;;;;;19.69;100.00;101510.50;10427959;28;20059;-79
2023/05/11 16:28:05;;;;;;;0.03;0.03;;;;;;;19.93;100.00;101509.59;10427395;28;20049;-78
2023/05/11 16:33:07;;;;;;;0.20;0.13;;;;;;;20.21;100.00;101510.34;10443407;28;20044;-78
2023/05/11 16:38:20;;;;;;;0.47;0.25;;;;;;;20.12;100.00;101510.38;10427125;28;20107;-78
2023/05/11 16:43:21;;;;;;;1.13;0.60;;;;;;;19.98;100.00;101515.66;10443793;28;20436;-78
2023/05/11 16:48:25;;;;;;;0.40;0.38;;;;;;;19.93;100.00;101515.69;10426637;28;20091;-78
2023/05/11 16:53:27;;;;;;;0.50;0.50;;;;;;;19.66;100.00;101511.34;10400762;28;20095;-79
2023/05/11 16:58:29;;;;;;;0.30;0.10;;;;;;;19.46;100.00;101503.56;10419433;28;20111;-79
2023/05/11 17:03:33;;;;;;;0.40;0.20;;;;;;;20.13;100.00;101512.13;10384714;28;20530;-79
2023/05/11 17:08:35;;;;;;;0.20;0.10;;;;;;;20.04;100.00;101502.56;10437268;28;20040;-79
2023/05/11 17:13:37;;;;;;;0.47;0.22;;;;;;;20.21;100.00;101505.13;10459572;28;20041;-78
2023/05/11 17:18:39;;;;;;;0.22;0.22;;;;;;;19.76;100.00;101517.47;10441821;28;20447;-79
2023/05/11 17:23:42;;;;;;;0.17;0.17;;;;;;;19.58;100.00;101514.00;10441169;28;20374;-80
2023/05/11 17:28:43;;;;;;;0.47;0.40;;;;;;;20.01;100.00;101514.78;10441874;28;20048;-79
2023/05/11 17:33:45;;;;;;;1.10;0.32;;;;;;;19.90;100.00;101505.25;10424526;28;20095;-79
2023/05/11 17:38:48;;;;;;;0.75;0.60;;;;;;;20.08;100.00;101508.66;10440818;28;20041;-79
2023/05/11 17:43:50;;;;;;;0.35;0.32;;;;;;;19.80;100.00;101516.56;10424204;28;20110;-79
2023/05/11 17:48:54;;;;;;;1.55;0.88;;;;;;;20.24;100.00;101497.25;10440848;28;20045;-79
2023/05/11 17:53:55;;;;;;;0.30;0.30;;;;;;;20.26;100.00;101503.34;10458588;28;20052;-79
2023/05/11 17:58:57;;;;;;;0.93;0.30;;;;;;;20.12;100.00;101506.00;10457790;28;20041;-79
2023/05/11 18:03:59;;;;;;;1.38;0.63;;;;;;;19.90;100.00;101515.72;10439064;28;20052;-79
2023/05/11 18:09:04;;;;;;;1.08;0.68;;;;;;;19.97;100.00;101519.16;10440033;28;20041;-78
2023/05/11 18:14:07;;;;;;;0.40;0.40;;;;;;;19.91;100.00;101517.44;10423161;28;20041;-79
2023/05/11 18:19:09;;;;;;;1.15;0.47;;;;;;;19.90;100.00;101526.16;10439255;28;20052;-78
2023/05/11 18:24:13;;;;;;;0.50;0.50;;;;;;;19.80;100.00;101525.28;10422934;28;20049;-79
2023/05/11 18:29:16;;;;;;;0.93;0.68;;;;;;;20.08;100.00;101533.06;10422798;28;20075;-78
2023/05/11 18:34:19;;;;;;;0.75;0.70;;;;;;;19.73;100.00;101540.97;10422741;28;20095;-78
2023/05/11 18:39:21;;;;;;;1.67;0.73;;;;;;;19.74;100.00;101550.56;10422512;28;20110;-79
2023/05/11 18:44:23;;;;;;;0.85;0.60;;;;;;;19.98;100.00;101539.19;10422308;28;20048;-79
2023/05/11 18:49:24;;;;;;;0.98;0.40;;;;;;;19.60;100.00;101543.63;10422400;28;20049;-78
2023/05/11 18:54:26;;;;;;;0.85;0.55;;;;;;;19.29;100.00;101553.22;10422497;28;20404;-78
2023/05/11 18:59:28;;;;;;;0.30;0.30;;;;;;;19.47;100.00;101562.81;10438618;28;20049;-78
2023/05/11 19:04:30;;;;;;;1.45;0.80;;;;;;;19.18;100.00;101558.44;10456189;28;20076;-79
2023/05/11 19:09:33;;;;;;;0.43;0.43;;;;;;;19.18;100.00;101566.25;10421862;28;20053;-78
2023/05/11 19:14:34;;;;;;;0.30;0.30;;;;;;;19.63;100.00;101574.97;10441381;28;20107;-87
2023/05/11 19:19:41;;;;;;;0.75;0.45;;;;;;;19.33;100.00;101579.34;10387218;28;20064;-86
2023/05/11 19:24:43;;;;;;;1.45;0.43;;;;;;;19.32;100.00;101574.97;10372761;28;20520;-85
2023/05/11 19:29:47;;;;;;;0.30;0.30;;;;;;;18.79;100.00;101584.44;10343460;28;20075;-84
2023/05/11 19:34:51;;;;;;;3.15;1.92;;;;;;;18.49;100.00;101587.84;10361288;28;20041;-86
2023/05/11 19:39:53;;;;;;;0.75;0.65;;;;;;;19.25;100.00;101593.28;10358364;28;20426;-85
2023/05/11 19:45:13;;;;;;;0.25;0.20;;;;;;;18.83;100.00;101595.78;10363331;28;20555;-86
2023/05/11 19:50:16;;;;;;;0.13;0.13;;;;;;;18.68;100.00;101602.69;10405675;28;20049;-84
2023/05/11 19:55:20;;;;;;;0.95;0.65;;;;;;;17.97;100.00;101606.69;10440331;28;20099;-87
2023/05/11 20:00:23;;;;;;;0.52;0.45;;;;;;;18.30;100.00;101606.00;10439179;28;20135;-86
2023/05/11 20:05:25;;;;;;;2.75;0.95;;;;;;;18.06;100.00;101618.03;10428482;28;20037;-86
2023/05/11 20:10:27;;;;;;;1.42;0.52;;;;;;;18.24;100.00;101619.03;10424029;28;20049;-84
2023/05/11 20:15:30;;;;;;;0.60;0.45;;;;;;;17.62;100.00;101620.31;10445861;28;20504;-87
2023/05/11 20:20:32;;;;;;;1.95;0.63;;;;;;;17.40;100.00;101614.94;10421693;28;20072;-86
2023/05/11 20:25:37;;;;;;;1.35;0.68;;;;;;;17.76;100.00;101609.13;10429074;28;20037;-85
2023/05/11 20:30:38;;;;;;;0.43;0.40;;;;;;;17.45;100.00;101618.44;10410382;28;20401;-85
2023/05/11 20:35:40;;;;;;;0.88;0.70;;;;;;;17.37;100.00;101609.69;10430056;28;20404;-84
2023/05/11 20:40:42;;;;;;;0.75;0.50;;;;;;;17.71;100.00;101605.63;10433284;28;20480;-85
2023/05/11 20:45:47;;;;;;;1.42;0.77;;;;;;;17.74;100.00;101610.88;10427234;28;20045;-86
2023/05/11 20:50:50;;;;;;;1.13;0.47;;;;;;;17.69;100.00;101602.13;10433335;28;20056;-86
2023/05/11 20:55:52;;;;;;;0.57;0.57;;;;;;;17.52;100.00;101602.00;10417235;28;20107;-84
2023/05/11 21:00:54;;;;;;;1.42;0.82;;;;;;;17.50;100.00;101600.25;10435936;28;20052;-83
2023/05/11 21:05:55;;;;;;;0.20;0.15;;;;;;;17.42;100.00;101590.63;10437120;28;20053;-85
2023/05/11 21:10:57;;;;;;;2.00;0.90;;;;;;;17.39;100.00;101598.41;10420349;28;20516;-86
2023/05/11 21:15:59;;;;;;;0.50;0.45;;;;;;;17.21;100.00;101606.06;10409087;28;20132;-86
2023/05/11 21:21:01;;;;;;;0.40;0.30;;;;;;;17.06;100.00;101605.06;10435690;28;20483;-89
2023/05/11 21:26:03;;;;;;;0.75;0.47;;;;;;;17.27;100.00;101608.72;10424599;28;20133;-86
2023/05/11 21:31:05;;;;;;;0.70;0.52;;;;;;;17.15;100.00;101611.22;10435418;28;20428;-87
2023/05/11 21:36:07;;;;;;;0.43;0.43;;;;;;;17.34;100.00;101604.44;10440074;28;20063;-88
2023/05/11 21:41:09;;;;;;;0.20;0.08;;;;;;;16.95;100.00;101604.06;10421209;28;20048;-88
2023/05/11 21:46:11;;;;;;;1.35;0.63;;;;;;;17.04;100.00;101606.75;10423216;28;20041;-88
2023/05/11 21:51:13;;;;;;;1.17;0.75;;;;;;;17.22;100.00;101603.47;10443599;28;20471;-89
2023/05/11 21:56:17;;;;;;;1.65;0.52;;;;;;;17.24;100.00;101599.16;10439142;28;20049;-88
2023/05/11 22:01:19;;;;;;;1.30;0.63;;;;;;;17.29;100.00;101601.81;10453681;28;20045;-87
2023/05/11 22:06:21;;;;;;;0.55;0.55;;;;;;;16.92;100.00;101601.41;10453556;28;20079;-88
2023/05/11 22:11:26;;;;;;;0.65;0.43;;;;;;;16.95;100.00;101602.34;10484656;28;20054;-86
2023/05/11 22:16:28;;;;;;;1.13;0.50;;;;;;;16.77;100.00;101596.88;10462825;28;20064;-89
2023/05/11 22:21:30;;;;;;;0.28;0.20;;;;;;;16.78;100.00;101593.44;10430084;28;20055;-88
2023/05/11 22:26:31;;;;;;;0.80;0.63;;;;;;;16.50;100.00;101604.38;10452320;28;20136;-86
2023/05/11 22:31:34;;;;;;;0.40;0.35;;;;;;;16.67;100.00;101601.13;10431501;28;20049;-88
2023/05/11 22:36:36;;;;;;;0.77;0.57;;;;;;;16.58;100.00;101595.81;10427023;28;20071;-86
2023/05/11 22:41:37;;;;;;;0.38;0.38;;;;;;;16.50;100.00;101599.19;10417299;28;20056;-88
2023/05/11 22:46:39;;;;;;;1.40;0.65;;;;;;;16.45;100.00;101595.66;10423621;28;20084;-88
2023/05/11 22:51:42;;;;;;;0.63;0.43;;;;;;;16.38;100.00;101600.78;10431576;28;20056;-88
2023/05/11 22:56:44;;;;;;;0.47;0.35;;;;;;;16.42;100.00;101602.53;10433489;28;20582;-88
2023/05/11 23:01:46;;;;;;;0.70;0.43;;;;;;;16.43;100.00;101602.56;10427980;28;20052;-88